createdAt,value
2023-05-19T00:04:02.597Z,8.08
2023-05-19T00:09:08.350Z,8.05
2023-05-19T00:14:12.097Z,8.03
2023-05-19T00:19:17.081Z,8.01
2023-05-19T00:24:19.910Z,8.00
2023-05-19T00:29:22.699Z,7.98
2023-05-19T00:34:25.626Z,7.97
2023-05-19T00:39:28.360Z,7.95
2023-05-19T00:44:31.486Z,9.45
2023-05-19T00:49:35.897Z,13.40
2023-05-19T00:54:38.695Z,13.65
2023-05-19T00:59:41.486Z,11.85
2023-05-19T01:04:45.108Z,10.85
2023-05-19T01:09:47.873Z,10.19
2023-05-19T01:14:51.201Z,9.69
2023-05-19T01:20:08.293Z,9.32
2023-05-19T01:25:29.905Z,9.04
2023-05-19T01:30:40.879Z,8.83
2023-05-19T01:35:44.215Z,8.71
2023-05-19T01:40:49.622Z,8.62
2023-05-19T01:45:53.403Z,10.02
2023-05-19T01:50:57.414Z,13.62
2023-05-19T01:56:00.523Z,12.78
2023-05-19T02:01:16.764Z,11.26
2023-05-19T02:06:40.848Z,10.48
2023-05-19T02:11:54.824Z,9.98
2023-05-19T02:16:59.351Z,9.62
2023-05-19T02:22:02.136Z,9.33
2023-05-19T02:27:05.387Z,9.09
2023-05-19T02:32:08.297Z,8.89
2023-05-19T02:37:15.536Z,8.74
2023-05-19T02:42:18.395Z,8.62
2023-05-19T02:47:21.234Z,8.53
2023-05-19T02:52:23.968Z,8.47
2023-05-19T02:57:29.551Z,9.98
2023-05-19T03:02:34.254Z,13.89
2023-05-19T03:07:37.376Z,13.66
2023-05-19T03:12:40.069Z,11.88
2023-05-19T03:17:42.934Z,10.95
2023-05-19T03:22:45.883Z,10.35
2023-05-19T03:27:48.647Z,9.95
2023-05-19T03:32:52.268Z,9.67
2023-05-19T03:37:55.313Z,9.48
2023-05-19T03:42:58.133Z,9.37
2023-05-19T03:48:01.071Z,9.32
2023-05-19T03:53:03.872Z,9.34
2023-05-19T03:58:06.691Z,10.93
2023-05-19T04:03:09.604Z,14.72
2023-05-19T04:08:12.502Z,14.10
2023-05-19T04:13:15.328Z,12.55
2023-05-19T04:18:18.129Z,11.71
2023-05-19T04:23:20.832Z,11.13
2023-05-19T04:28:24.077Z,10.75
2023-05-19T04:33:29.332Z,10.51
2023-05-19T04:38:32.057Z,10.40
2023-05-19T04:43:34.803Z,11.97
2023-05-19T04:48:42.815Z,15.17
2023-05-19T04:53:45.937Z,13.92
2023-05-19T04:58:49.474Z,12.75
2023-05-19T05:03:55.428Z,12.10
2023-05-19T05:09:00.129Z,11.76
2023-05-19T05:14:03.180Z,11.54
2023-05-19T05:19:06.227Z,11.42
2023-05-19T05:24:09.563Z,11.37
2023-05-19T05:29:12.370Z,11.40
2023-05-19T05:34:15.472Z,11.51
2023-05-19T05:39:18.167Z,14.54
2023-05-19T05:44:20.937Z,16.40
2023-05-19T05:49:24.076Z,14.94
2023-05-19T05:54:26.999Z,14.05
2023-05-19T05:59:29.794Z,13.53
2023-05-19T06:04:32.955Z,13.27
2023-05-19T06:09:37.605Z,13.17
2023-05-19T06:14:40.565Z,13.14
2023-05-19T06:19:43.428Z,13.15
2023-05-19T06:24:46.516Z,13.27
2023-05-19T06:29:49.275Z,13.38
2023-05-19T06:34:54.770Z,13.55
2023-05-19T06:39:59.034Z,13.78
2023-05-19T06:45:03.276Z,14.02
2023-05-19T06:50:07.571Z,14.35
2023-05-19T06:55:11.987Z,14.69
2023-05-19T07:00:18.835Z,14.96
2023-05-19T07:05:23.720Z,15.16
2023-05-19T07:10:26.623Z,15.40
2023-05-19T07:15:30.408Z,15.59
2023-05-19T07:20:34.417Z,15.75
2023-05-19T07:25:37.298Z,15.89
2023-05-19T07:30:40.121Z,15.99
2023-05-19T07:35:43.094Z,16.16
2023-05-19T07:40:46.291Z,16.34
2023-05-19T07:45:49.316Z,16.46
2023-05-19T07:50:53.086Z,16.63
2023-05-19T07:55:58.356Z,16.83
2023-05-19T08:01:01.722Z,17.03
2023-05-19T08:06:04.802Z,17.26
2023-05-19T08:11:07.729Z,17.44
2023-05-19T08:16:10.804Z,17.59
2023-05-19T08:21:13.666Z,17.73
2023-05-19T08:26:20.104Z,17.73
2023-05-19T08:31:23.507Z,17.79
2023-05-19T08:36:26.412Z,17.85
2023-05-19T08:41:29.188Z,17.96
2023-05-19T08:46:32.310Z,18.03
2023-05-19T08:51:48.512Z,17.99
2023-05-19T08:56:51.629Z,17.89
2023-05-19T09:01:55.670Z,17.85
2023-05-19T09:07:02.934Z,17.74
2023-05-19T09:12:06.109Z,17.70
2023-05-19T09:17:09.857Z,17.90
2023-05-19T09:22:16.162Z,18.14
2023-05-19T09:27:25.215Z,18.26
2023-05-19T09:32:28.170Z,18.14
2023-05-19T09:37:32.466Z,17.97
2023-05-19T09:42:39.221Z,17.81
2023-05-19T09:47:42.844Z,17.79
2023-05-19T09:52:45.746Z,17.79
2023-05-19T09:57:48.649Z,17.79
2023-05-19T10:02:51.639Z,17.91
2023-05-19T10:07:55.376Z,17.99
2023-05-19T10:12:59.208Z,18.22
2023-05-19T10:18:03.236Z,18.37
2023-05-19T10:23:06.166Z,18.21
2023-05-19T10:28:13.959Z,17.99
2023-05-19T10:33:29.029Z,17.71
2023-05-19T10:38:59.176Z,17.52
2023-05-19T10:44:41.173Z,17.23
2023-05-19T10:49:45.596Z,16.94
2023-05-19T10:54:48.697Z,16.89
2023-05-19T10:59:51.670Z,16.81
2023-05-19T11:04:58.447Z,16.74
2023-05-19T11:10:07.092Z,16.65
2023-05-19T11:15:14.886Z,16.44
2023-05-19T11:20:28.555Z,16.32
2023-05-19T11:25:48.433Z,16.37
2023-05-19T11:30:53.871Z,16.40
2023-05-19T11:36:00.072Z,16.41
2023-05-19T11:41:03.926Z,16.42
2023-05-19T11:46:07.835Z,16.33
2023-05-19T11:51:10.655Z,16.23
2023-05-19T11:56:15.221Z,16.09
2023-05-19T12:01:18.000Z,16.02
2023-05-19T12:06:20.914Z,16.00
2023-05-19T12:11:24.277Z,15.88
2023-05-19T12:16:36.330Z,15.73
2023-05-19T12:21:39.529Z,15.59
2023-05-19T12:26:42.452Z,15.41
2023-05-19T12:31:46.859Z,15.18
2023-05-19T12:36:49.847Z,14.98
2023-05-19T12:41:52.597Z,14.88
2023-05-19T12:46:57.606Z,14.71
2023-05-19T12:52:12.902Z,14.56
2023-05-19T12:57:27.870Z,14.59
2023-05-19T13:02:30.983Z,14.72
2023-05-19T13:07:35.758Z,16.30
2023-05-19T13:12:38.870Z,17.12
2023-05-19T13:17:41.636Z,15.86
2023-05-19T13:22:44.770Z,15.04
2023-05-19T13:27:48.370Z,14.56
2023-05-19T13:32:52.724Z,14.42
2023-05-19T13:37:55.607Z,14.43
2023-05-19T13:42:58.368Z,14.27
2023-05-19T13:48:01.429Z,14.15
2023-05-19T13:53:04.513Z,14.03
2023-05-19T13:58:07.871Z,13.89
2023-05-19T14:03:10.693Z,13.64
2023-05-19T14:08:13.544Z,13.42
2023-05-19T14:13:31.470Z,13.25
2023-05-19T14:18:37.181Z,13.15
2023-05-19T14:23:40.073Z,15.55
2023-05-19T14:28:42.844Z,16.02
2023-05-19T14:33:45.680Z,15.19
2023-05-19T14:38:48.526Z,14.89
2023-05-19T14:43:51.543Z,14.76
2023-05-19T14:48:54.379Z,14.66
2023-05-19T14:53:57.228Z,14.67
2023-05-19T14:58:59.946Z,14.78
2023-05-19T15:04:02.756Z,14.75
2023-05-19T15:09:05.548Z,14.59
2023-05-19T15:14:08.218Z,14.47
2023-05-19T15:19:10.952Z,14.31
2023-05-19T15:24:13.713Z,14.13
2023-05-19T15:29:16.483Z,14.01
2023-05-19T15:34:20.411Z,14.06
2023-05-19T15:39:23.172Z,14.20
2023-05-19T15:44:27.618Z,14.45
2023-05-19T15:49:31.719Z,14.59
2023-05-19T15:54:34.479Z,14.61
2023-05-19T15:59:37.234Z,14.42
2023-05-19T16:04:39.943Z,14.25
2023-05-19T16:09:42.964Z,14.09
2023-05-19T16:14:45.805Z,13.94
2023-05-19T16:19:48.608Z,13.82
2023-05-19T16:24:52.494Z,13.77
2023-05-19T16:29:55.585Z,13.72
2023-05-19T16:34:58.357Z,13.64
2023-05-19T16:40:01.202Z,13.58
2023-05-19T16:45:04.102Z,13.54
2023-05-19T16:50:07.736Z,13.51
2023-05-19T16:55:11.197Z,13.44
2023-05-19T17:00:14.965Z,14.70
2023-05-19T17:05:17.919Z,16.46
2023-05-19T17:10:21.207Z,15.17
2023-05-19T17:15:24.205Z,14.38
2023-05-19T17:20:26.853Z,13.89
2023-05-19T17:25:29.640Z,13.53
2023-05-19T17:30:32.999Z,13.31
2023-05-19T17:35:35.944Z,14.57
2023-05-19T17:40:40.086Z,16.51
2023-05-19T17:45:44.786Z,15.12
2023-05-19T17:50:48.163Z,14.21
2023-05-19T17:55:52.878Z,13.71
2023-05-19T18:00:56.087Z,13.39
2023-05-19T18:05:59.027Z,14.60
2023-05-19T18:11:02.635Z,16.45
2023-05-19T18:16:05.546Z,15.03
2023-05-19T18:21:14.124Z,14.16
2023-05-19T18:26:16.902Z,13.62
2023-05-19T18:31:20.426Z,13.25
2023-05-19T18:36:23.615Z,12.98
2023-05-19T18:41:26.536Z,14.37
2023-05-19T18:46:30.096Z,17.08
2023-05-19T18:51:36.182Z,15.57
2023-05-19T18:56:39.172Z,14.31
2023-05-19T19:01:42.969Z,13.61
2023-05-19T19:06:47.886Z,13.16
2023-05-19T19:11:50.674Z,14.36
2023-05-19T19:16:53.508Z,17.67
2023-05-19T19:21:56.433Z,17.46
2023-05-19T19:26:59.165Z,15.50
2023-05-19T19:32:02.183Z,14.37
2023-05-19T19:37:04.933Z,13.62
2023-05-19T19:42:07.733Z,13.09
2023-05-19T19:47:10.487Z,14.42
2023-05-19T19:52:13.251Z,17.31
2023-05-19T19:57:17.410Z,16.33
2023-05-19T20:02:20.255Z,14.75
2023-05-19T20:07:23.404Z,13.85
2023-05-19T20:12:26.602Z,13.28
2023-05-19T20:17:29.406Z,14.68
2023-05-19T20:22:32.258Z,17.51
2023-05-19T20:27:35.056Z,16.49
2023-05-19T20:32:37.880Z,14.71
2023-05-19T20:37:41.047Z,13.79
2023-05-19T20:42:43.718Z,13.45
2023-05-19T20:47:46.778Z,16.21
2023-05-19T20:52:49.501Z,16.48
2023-05-19T20:57:52.329Z,14.76
2023-05-19T21:02:55.146Z,13.77
2023-05-19T21:07:57.940Z,15.53
2023-05-19T21:13:00.832Z,15.85
2023-05-19T21:18:03.729Z,14.32
2023-05-19T21:23:06.616Z,14.67
2023-05-19T21:28:09.382Z,16.42
2023-05-19T21:33:12.324Z,14.74
2023-05-19T21:38:23.508Z,13.66
2023-05-19T21:43:27.290Z,15.30
2023-05-19T21:48:30.067Z,17.72
2023-05-19T21:53:32.969Z,16.22
2023-05-19T21:58:36.035Z,14.59
2023-05-19T22:03:38.852Z,13.68
2023-05-19T22:08:41.897Z,14.09
2023-05-19T22:13:44.695Z,17.28
2023-05-19T22:18:47.499Z,17.56
2023-05-19T22:23:52.139Z,15.50
2023-05-19T22:28:55.568Z,14.27
2023-05-19T22:33:58.315Z,13.49
2023-05-19T22:39:01.112Z,14.56
2023-05-19T22:44:03.928Z,17.59
2023-05-19T22:49:06.708Z,17.08
2023-05-19T22:54:10.511Z,15.23
2023-05-19T22:59:13.281Z,14.20
2023-05-19T23:04:16.060Z,13.52
2023-05-19T23:09:19.134Z,14.58
2023-05-19T23:14:22.117Z,17.52
2023-05-19T23:19:24.964Z,16.50
2023-05-19T23:24:27.765Z,14.78
2023-05-19T23:29:30.498Z,13.83
2023-05-19T23:34:33.360Z,13.23
2023-05-19T23:39:38.281Z,14.35
2023-05-19T23:44:41.302Z,17.45
2023-05-19T23:49:43.965Z,16.72
2023-05-19T23:54:46.692Z,15.00
2023-05-19T23:59:49.447Z,14.07
